Time;durP1;ratioP1;P1;durP2;ratioP2;P2;SDS_P1;SDS_P2;PMS_P1;PMS_P2;Temp;Humidity;BMP_temperature;BMP_pressure;BME280_temperature;BME280_humidity;BME280_pressure;Samples;Min_cycle;Max_cycle;Signal;HPM_P1;HPM_P2
2020/12/23 00:02:15;;;;;;;38.17;4.72;;;;;;;;;;4970485;28;20498;-73
2020/12/23 00:04:41;;;;;;;28.70;3.88;;;;;;;;;;4959588;28;20373;-72
2020/12/23 00:07:07;;;;;;;37.78;4.13;;;;;;;;;;4964194;28;20110;-72
2020/12/23 00:09:33;;;;;;;32.42;4.75;;;;;;;;;;4966233;28;20509;-73
2020/12/23 00:12:02;;;;;;;36.22;4.65;;;;;;;;;;4960217;28;20486;-72
2020/12/23 00:14:29;;;;;;;31.35;4.80;;;;;;;;;;4966913;28;20043;-73
2020/12/23 00:16:55;;;;;;;39.13;4.57;;;;;;;;;;4966825;28;20054;-73
2020/12/23 00:19:21;;;;;;;37.92;4.80;;;;;;;;;;4966586;28;20105;-73
2020/12/23 00:21:48;;;;;;;43.50;4.57;;;;;;;;;;4961269;28;20080;-73
2020/12/23 00:24:14;;;;;;;46.08;6.28;;;;;;;;;;4968686;28;20043;-73
2020/12/23 00:26:43;;;;;;;34.00;4.18;;;;;;;;;;4969052;28;20043;-73
2020/12/23 00:29:09;;;;;;;38.72;4.15;;;;;;;;;;4968120;28;20058;-72
2020/12/23 00:31:35;;;;;;;43.90;4.38;;;;;;;;;;4965108;28;20055;-73
2020/12/23 00:34:02;;;;;;;37.78;4.50;;;;;;;;;;4957162;28;20511;-73
2020/12/23 00:36:28;;;;;;;34.47;4.85;;;;;;;;;;4971197;28;20119;-73
2020/12/23 00:38:55;;;;;;;28.33;3.53;;;;;;;;;;4965761;28;20055;-72
2020/12/23 00:41:21;;;;;;;30.90;4.32;;;;;;;;;;4964013;28;20046;-73
2020/12/23 00:43:47;;;;;;;38.33;3.78;;;;;;;;;;4963599;28;20462;-73
2020/12/23 00:46:13;;;;;;;39.08;5.32;;;;;;;;;;4969477;28;20046;-73
2020/12/23 00:48:41;;;;;;;41.33;5.38;;;;;;;;;;4972378;28;20047;-73
2020/12/23 00:51:11;;;;;;;30.95;3.90;;;;;;;;;;4962192;28;20043;-73
2020/12/23 00:53:38;;;;;;;31.55;4.03;;;;;;;;;;4942251;29;20455;-73
2020/12/23 00:56:06;;;;;;;30.80;4.07;;;;;;;;;;4942833;28;20050;-73
2020/12/23 00:58:32;;;;;;;24.10;3.83;;;;;;;;;;4966204;28;20054;-73
2020/12/23 01:00:58;;;;;;;41.13;4.88;;;;;;;;;;4961224;28;20513;-73
2020/12/23 01:03:41;;;;;;;30.58;4.00;;;;;;;;;;4961963;28;20047;-73
2020/12/23 01:06:07;;;;;;;35.67;3.88;;;;;;;;;;4961277;28;20043;-73
2020/12/23 01:08:34;;;;;;;32.45;3.45;;;;;;;;;;4959558;28;20039;-72
2020/12/23 01:11:00;;;;;;;39.33;4.68;;;;;;;;;;4960912;28;20086;-73
2020/12/23 01:13:27;;;;;;;34.50;4.05;;;;;;;;;;4956531;28;20051;-72
2020/12/23 01:15:53;;;;;;;39.22;4.78;;;;;;;;;;4959571;28;20125;-73
2020/12/23 01:18:19;;;;;;;40.22;3.60;;;;;;;;;;4966642;28;20099;-73
2020/12/23 01:20:45;;;;;;;22.23;3.28;;;;;;;;;;4959825;28;20051;-72
2020/12/23 01:23:11;;;;;;;33.53;4.65;;;;;;;;;;4966828;28;20114;-73
2020/12/23 01:25:38;;;;;;;35.67;4.25;;;;;;;;;;4964718;28;20055;-73
2020/12/23 01:28:04;;;;;;;30.95;3.88;;;;;;;;;;4957987;28;20050;-73
2020/12/23 01:30:30;;;;;;;34.25;5.10;;;;;;;;;;4959263;28;20051;-73
2020/12/23 01:32:56;;;;;;;35.05;4.55;;;;;;;;;;4961785;28;20047;-73
2020/12/23 01:35:22;;;;;;;32.03;4.40;;;;;;;;;;4963758;28;20122;-73
2020/12/23 01:37:49;;;;;;;41.53;4.80;;;;;;;;;;4962877;28;20066;-73
2020/12/23 01:40:15;;;;;;;39.30;4.72;;;;;;;;;;4960291;28;20039;-73
2020/12/23 01:42:41;;;;;;;29.30;3.75;;;;;;;;;;4962705;28;20039;-73
2020/12/23 01:45:07;;;;;;;27.88;3.70;;;;;;;;;;4965231;28;20043;-73
2020/12/23 01:47:35;;;;;;;28.48;3.67;;;;;;;;;;4963818;28;20042;-73
2020/12/23 01:50:02;;;;;;;30.88;4.70;;;;;;;;;;4963681;28;20094;-72
2020/12/23 01:52:29;;;;;;;29.05;4.82;;;;;;;;;;4967617;28;20066;-72
2020/12/23 01:54:57;;;;;;;34.72;3.88;;;;;;;;;;4960460;28;20161;-73
2020/12/23 01:57:23;;;;;;;32.50;4.95;;;;;;;;;;4966289;28;20043;-73
2020/12/23 01:59:49;;;;;;;30.98;3.83;;;;;;;;;;4966675;28;20479;-73
2020/12/23 02:02:32;;;;;;;37.40;4.80;;;;;;;;;;4960222;28;20047;-73
2020/12/23 02:04:59;;;;;;;24.30;3.25;;;;;;;;;;4965786;28;20039;-73
2020/12/23 02:07:26;;;;;;;25.52;4.20;;;;;;;;;;4963751;28;20507;-73
2020/12/23 02:09:53;;;;;;;32.27;4.53;;;;;;;;;;4955326;28;20055;-73
2020/12/23 02:12:20;;;;;;;27.08;3.78;;;;;;;;;;4965726;28;20036;-73
2020/12/23 02:14:47;;;;;;;33.40;4.97;;;;;;;;;;4963262;28;20445;-73
2020/12/23 02:17:13;;;;;;;28.73;3.60;;;;;;;;;;4962692;28;20574;-73
2020/12/23 02:19:52;;;;;;;33.70;5.40;;;;;;;;;;4955056;28;20050;-73
2020/12/23 02:22:18;;;;;;;;;;;;;;;;;;4964328;28;20043;-73
2020/12/23 02:24:45;;;;;;;41.97;4.50;;;;;;;;;;4955662;28;19945;-73
2020/12/23 02:27:12;;;;;;;23.10;3.60;;;;;;;;;;4963293;28;20039;-73
2020/12/23 02:29:42;;;;;;;34.72;4.35;;;;;;;;;;4961432;28;20098;-73
2020/12/23 02:32:09;;;;;;;37.50;4.20;;;;;;;;;;4961779;28;20043;-72
2020/12/23 02:34:40;;;;;;;29.88;3.80;;;;;;;;;;4964904;28;20054;-72
2020/12/23 02:37:06;;;;;;;19.63;3.20;;;;;;;;;;4959986;28;20034;-72
2020/12/23 02:39:33;;;;;;;33.00;3.83;;;;;;;;;;4960298;28;20656;-72
2020/12/23 02:42:00;;;;;;;25.33;3.17;;;;;;;;;;4950872;28;20410;-72
2020/12/23 02:44:26;;;;;;;27.63;3.40;;;;;;;;;;4955210;28;20573;-72
2020/12/23 02:47:03;;;;;;;18.52;3.08;;;;;;;;;;4967741;28;20051;-73
2020/12/23 02:49:30;;;;;;;26.42;3.45;;;;;;;;;;4958329;28;20054;-72
2020/12/23 02:51:56;;;;;;;31.48;4.30;;;;;;;;;;4965876;28;20039;-73
2020/12/23 02:54:23;;;;;;;25.08;3.63;;;;;;;;;;4957384;28;20043;-73
2020/12/23 02:56:49;;;;;;;29.83;4.27;;;;;;;;;;4969607;28;20040;-73
2020/12/23 02:59:15;;;;;;;29.92;4.13;;;;;;;;;;4963227;28;20047;-73
2020/12/23 03:01:42;;;;;;;22.02;3.10;;;;;;;;;;4968924;28;20195;-73
2020/12/23 03:04:08;;;;;;;18.50;2.88;;;;;;;;;;4962920;28;20068;-72
2020/12/23 03:06:35;;;;;;;27.15;3.85;;;;;;;;;;4965966;28;20114;-72
2020/12/23 03:09:02;;;;;;;22.55;3.55;;;;;;;;;;4963592;28;20065;-74
2020/12/23 03:11:28;;;;;;;;;;;;;;;;;;4968166;28;20074;-73
2020/12/23 03:13:55;;;;;;;22.05;3.40;;;;;;;;;;4959828;28;19927;-72
2020/12/23 03:16:21;;;;;;;28.25;3.92;;;;;;;;;;4965418;28;20046;-72
2020/12/23 03:18:47;;;;;;;29.13;4.35;;;;;;;;;;4963876;28;20039;-72
2020/12/23 03:21:13;;;;;;;21.42;2.60;;;;;;;;;;4965480;28;20039;-73
2020/12/23 03:23:40;;;;;;;24.50;4.50;;;;;;;;;;4963755;28;20043;-73
2020/12/23 03:26:07;;;;;;;36.92;4.47;;;;;;;;;;4965983;28;20305;-72
2020/12/23 03:28:33;;;;;;;17.77;3.25;;;;;;;;;;4963205;28;20047;-73
2020/12/23 03:30:59;;;;;;;23.85;3.33;;;;;;;;;;4948613;28;20098;-73
2020/12/23 03:33:26;;;;;;;18.58;3.35;;;;;;;;;;4971688;28;20109;-72
2020/12/23 03:35:52;;;;;;;26.65;4.03;;;;;;;;;;4964837;28;20039;-72
2020/12/23 03:38:18;;;;;;;29.75;3.45;;;;;;;;;;4961407;28;20122;-73
2020/12/23 03:40:45;;;;;;;27.73;3.30;;;;;;;;;;4968775;28;20054;-72
2020/12/23 03:43:11;;;;;;;27.83;3.50;;;;;;;;;;4965932;28;20049;-72
2020/12/23 03:45:38;;;;;;;23.37;4.03;;;;;;;;;;4968366;28;20535;-72
2020/12/23 03:48:04;;;;;;;27.60;3.78;;;;;;;;;;4961437;28;20043;-73
2020/12/23 03:50:30;;;;;;;26.23;4.07;;;;;;;;;;4974418;28;20047;-73
2020/12/23 03:52:57;;;;;;;22.85;3.40;;;;;;;;;;4968797;28;20098;-73
2020/12/23 03:55:23;;;;;;;31.35;3.90;;;;;;;;;;4963547;28;20042;-73
2020/12/23 03:57:49;;;;;;;20.88;2.97;;;;;;;;;;4969257;28;20503;-72
2020/12/23 04:00:15;;;;;;;20.80;3.03;;;;;;;;;;4971221;28;20054;-72
2020/12/23 04:02:41;;;;;;;29.30;3.58;;;;;;;;;;4964592;28;20070;-72
2020/12/23 04:05:08;;;;;;;19.30;3.40;;;;;;;;;;4965992;28;20587;-73
2020/12/23 04:07:34;;;;;;;28.80;3.70;;;;;;;;;;4969017;28;20050;-73
2020/12/23 04:10:03;;;;;;;26.90;3.73;;;;;;;;;;4967537;28;20068;-72
2020/12/23 04:12:29;;;;;;;30.15;3.58;;;;;;;;;;4970963;28;20097;-72
2020/12/23 04:14:55;;;;;;;22.02;3.05;;;;;;;;;;4962973;28;20043;-72
2020/12/23 04:17:21;;;;;;;26.58;3.28;;;;;;;;;;4969349;28;20042;-72
2020/12/23 04:19:48;;;;;;;27.48;3.05;;;;;;;;;;4971333;28;20043;-72
2020/12/23 04:22:14;;;;;;;30.15;4.07;;;;;;;;;;4968844;28;20051;-72
2020/12/23 04:24:40;;;;;;;25.67;3.55;;;;;;;;;;4962694;28;20058;-73
2020/12/23 04:27:06;;;;;;;24.00;3.35;;;;;;;;;;4962767;28;20113;-73
2020/12/23 04:29:32;;;;;;;27.27;3.85;;;;;;;;;;4959082;28;20047;-72
2020/12/23 04:31:58;;;;;;;25.17;3.55;;;;;;;;;;4963609;28;20165;-72
2020/12/23 04:34:25;;;;;;;26.27;3.45;;;;;;;;;;4961919;28;20086;-73
2020/12/23 04:36:51;;;;;;;22.80;3.53;;;;;;;;;;4960358;28;20046;-73
2020/12/23 04:39:17;;;;;;;18.52;2.63;;;;;;;;;;4967474;28;20200;-73
2020/12/23 04:41:43;;;;;;;31.17;3.15;;;;;;;;;;4960889;28;20053;-72
2020/12/23 04:44:10;;;;;;;12.15;2.63;;;;;;;;;;4960650;28;20047;-72
2020/12/23 04:46:39;;;;;;;20.52;4.32;;;;;;;;;;4971139;28;20042;-72
2020/12/23 04:49:06;;;;;;;18.85;2.85;;;;;;;;;;4957560;28;20051;-72
2020/12/23 04:51:34;;;;;;;21.23;2.97;;;;;;;;;;4958710;28;20043;-72
2020/12/23 04:54:02;;;;;;;23.25;3.08;;;;;;;;;;4959243;28;20517;-73
2020/12/23 04:56:29;;;;;;;18.73;3.38;;;;;;;;;;4968188;28;20043;-72
2020/12/23 04:58:55;;;;;;;21.05;2.90;;;;;;;;;;4954195;28;20047;-73
2020/12/23 05:01:21;;;;;;;30.42;3.33;;;;;;;;;;4966796;28;20043;-73
2020/12/23 05:03:48;;;;;;;25.65;2.75;;;;;;;;;;4960451;28;20043;-72
2020/12/23 05:06:15;;;;;;;19.37;3.50;;;;;;;;;;4975505;28;20042;-72
2020/12/23 05:08:41;;;;;;;21.10;3.00;;;;;;;;;;4962084;28;20289;-72
2020/12/23 05:11:09;;;;;;;19.02;3.20;;;;;;;;;;4970659;28;20154;-73
2020/12/23 05:13:36;;;;;;;20.63;3.88;;;;;;;;;;4967213;28;20542;-72
2020/12/23 05:16:06;;;;;;;24.20;3.63;;;;;;;;;;4968047;28;20043;-73
2020/12/23 05:18:36;;;;;;;24.83;3.10;;;;;;;;;;4960367;28;20333;-72
2020/12/23 05:21:03;;;;;;;25.45;2.72;;;;;;;;;;4967249;28;20398;-72
2020/12/23 05:23:30;;;;;;;23.20;3.17;;;;;;;;;;4967243;28;20550;-72
2020/12/23 05:26:04;;;;;;;25.83;3.20;;;;;;;;;;4972884;28;20050;-72
2020/12/23 05:28:30;;;;;;;24.60;3.88;;;;;;;;;;4973140;28;20410;-72
2020/12/23 05:31:03;;;;;;;28.92;4.10;;;;;;;;;;4967256;28;20113;-72
2020/12/23 05:33:36;;;;;;;19.88;2.83;;;;;;;;;;4966275;28;20090;-72
2020/12/23 05:36:04;;;;;;;18.05;2.95;;;;;;;;;;4965021;28;20050;-72
2020/12/23 05:38:30;;;;;;;30.75;3.63;;;;;;;;;;4961433;28;20483;-72
2020/12/23 05:40:59;;;;;;;23.27;2.33;;;;;;;;;;4967377;28;20489;-72
2020/12/23 05:43:25;;;;;;;26.63;2.95;;;;;;;;;;4968869;28;20706;-72
2020/12/23 05:45:52;;;;;;;22.27;3.30;;;;;;;;;;4962569;28;20057;-72
2020/12/23 05:48:18;;;;;;;17.30;2.28;;;;;;;;;;4960939;28;20777;-72
2020/12/23 05:50:45;;;;;;;24.52;3.45;;;;;;;;;;4960640;28;20039;-72
2020/12/23 05:53:13;;;;;;;16.48;2.58;;;;;;;;;;4962643;28;20562;-73
2020/12/23 05:55:38;;;;;;;;;;;;;;;;;;4970118;28;20109;-72
2020/12/23 05:58:05;;;;;;;19.65;3.15;;;;;;;;;;4962032;28;19921;-72
2020/12/23 06:00:32;;;;;;;21.00;2.90;;;;;;;;;;4965412;28;20051;-72
2020/12/23 06:03:00;;;;;;;25.65;3.70;;;;;;;;;;4968467;28;20525;-72
2020/12/23 06:05:28;;;;;;;19.75;3.72;;;;;;;;;;4965946;28;20541;-72
2020/12/23 06:07:57;;;;;;;19.90;3.10;;;;;;;;;;4964895;28;20046;-72
2020/12/23 06:10:24;;;;;;;23.83;3.33;;;;;;;;;;4967472;28;20407;-72
2020/12/23 06:12:55;;;;;;;25.13;3.57;;;;;;;;;;4963402;28;20047;-73
2020/12/23 06:15:28;;;;;;;25.13;3.10;;;;;;;;;;4964673;28;20302;-72
2020/12/23 06:17:57;;;;;;;30.02;3.72;;;;;;;;;;4960323;28;20049;-72
2020/12/23 06:20:23;;;;;;;24.38;3.63;;;;;;;;;;4965935;28;20043;-72
2020/12/23 06:22:54;;;;;;;33.17;3.55;;;;;;;;;;4962665;28;20047;-73
2020/12/23 06:25:22;;;;;;;22.80;3.13;;;;;;;;;;4965132;28;20101;-72
2020/12/23 06:27:51;;;;;;;30.60;4.68;;;;;;;;;;4963476;28;20048;-72
2020/12/23 06:30:18;;;;;;;27.23;3.45;;;;;;;;;;4963615;28;20475;-72
2020/12/23 06:32:48;;;;;;;28.73;3.03;;;;;;;;;;4968169;28;20102;-72
2020/12/23 06:35:14;;;;;;;25.13;3.33;;;;;;;;;;4958373;28;20078;-72
2020/12/23 06:37:40;;;;;;;24.25;2.85;;;;;;;;;;4966041;28;20105;-72
2020/12/23 06:40:07;;;;;;;20.98;2.55;;;;;;;;;;4955329;28;20051;-72
2020/12/23 06:42:34;;;;;;;27.27;3.08;;;;;;;;;;4964083;28;20150;-72
2020/12/23 06:45:04;;;;;;;31.73;2.90;;;;;;;;;;4963340;28;20118;-72
2020/12/23 06:47:32;;;;;;;25.52;3.58;;;;;;;;;;4959692;28;20050;-72
2020/12/23 06:50:02;;;;;;;25.73;3.45;;;;;;;;;;4963887;28;20525;-72
2020/12/23 06:52:29;;;;;;;28.83;3.72;;;;;;;;;;4961432;28;20051;-72
2020/12/23 06:55:09;;;;;;;33.00;3.72;;;;;;;;;;4961865;28;20134;-72
2020/12/23 06:57:39;;;;;;;22.98;3.53;;;;;;;;;;4967092;28;20395;-72
2020/12/23 07:00:05;;;;;;;19.40;3.65;;;;;;;;;;4968291;28;20045;-72
2020/12/23 07:02:40;;;;;;;32.15;3.40;;;;;;;;;;4964198;28;20035;-72
2020/12/23 07:05:32;;;;;;;28.65;3.47;;;;;;;;;;4960183;28;20581;-72
2020/12/23 07:08:00;;;;;;;17.23;2.78;;;;;;;;;;4959141;28;20694;-72
2020/12/23 07:10:26;;;;;;;;;;;;;;;;;;4969640;28;20094;-72
2020/12/23 07:12:59;;;;;;;34.92;3.45;;;;;;;;;;4962912;28;19922;-72
2020/12/23 07:15:26;;;;;;;29.20;3.40;;;;;;;;;;4958822;28;20038;-72
2020/12/23 07:17:53;;;;;;;18.90;3.00;;;;;;;;;;4962747;28;20117;-72
2020/12/23 07:20:23;;;;;;;18.60;2.80;;;;;;;;;;4958015;28;20095;-72
2020/12/23 07:22:50;;;;;;;27.90;3.58;;;;;;;;;;4957242;28;20533;-72
2020/12/23 07:25:26;;;;;;;22.20;3.28;;;;;;;;;;4957188;28;20505;-72
2020/12/23 07:27:56;;;;;;;25.00;3.70;;;;;;;;;;4959451;28;20058;-72
2020/12/23 07:30:23;;;;;;;25.52;3.35;;;;;;;;;;4957926;28;20103;-72
2020/12/23 07:33:00;;;;;;;23.90;2.90;;;;;;;;;;4962149;28;20054;-72
2020/12/23 07:35:27;;;;;;;37.67;4.00;;;;;;;;;;4968196;28;20052;-72
2020/12/23 07:37:58;;;;;;;23.20;3.13;;;;;;;;;;4964657;28;20668;-72
2020/12/23 07:40:24;;;;;;;38.70;3.50;;;;;;;;;;4956361;28;20051;-72
2020/12/23 07:42:51;;;;;;;29.50;3.20;;;;;;;;;;4960917;28;20046;-72
2020/12/23 07:45:18;;;;;;;31.73;3.33;;;;;;;;;;4963304;28;20399;-72
2020/12/23 07:47:54;;;;;;;23.65;2.55;;;;;;;;;;4966302;28;20399;-72
2020/12/23 07:50:20;;;;;;;32.33;4.15;;;;;;;;;;4967307;28;20054;-72
2020/12/23 07:52:46;;;;;;;24.80;3.38;;;;;;;;;;4963907;28;20445;-72
2020/12/23 07:55:17;;;;;;;31.48;5.05;;;;;;;;;;4966274;28;20074;-72
2020/12/23 07:57:43;;;;;;;25.83;3.47;;;;;;;;;;4966776;28;20130;-72
2020/12/23 08:00:11;;;;;;;30.80;3.28;;;;;;;;;;4970253;28;20070;-72
2020/12/23 08:02:40;;;;;;;33.33;4.18;;;;;;;;;;4958604;28;20059;-72
2020/12/23 08:05:08;;;;;;;24.58;3.50;;;;;;;;;;4965784;28;20051;-72
2020/12/23 08:07:38;;;;;;;27.73;3.33;;;;;;;;;;4965367;28;20071;-72
2020/12/23 08:10:08;;;;;;;26.05;3.40;;;;;;;;;;4959635;28;20081;-72
2020/12/23 08:12:35;;;;;;;28.63;3.50;;;;;;;;;;4963844;28;20050;-72
2020/12/23 08:15:07;;;;;;;25.77;3.28;;;;;;;;;;4971016;28;20098;-72
2020/12/23 08:17:33;;;;;;;30.38;3.80;;;;;;;;;;4957469;28;20062;-72
2020/12/23 08:20:02;;;;;;;29.38;3.20;;;;;;;;;;4960283;28;20043;-72
2020/12/23 08:22:28;;;;;;;25.08;3.40;;;;;;;;;;4943176;29;20615;-72
2020/12/23 08:25:01;;;;;;;33.08;4.35;;;;;;;;;;4968442;28;20083;-72
2020/12/23 08:27:28;;;;;;;33.85;3.83;;;;;;;;;;4968050;28;20039;-72
2020/12/23 08:29:54;;;;;;;41.45;3.97;;;;;;;;;;4964322;28;20070;-72
2020/12/23 08:32:24;;;;;;;22.30;3.35;;;;;;;;;;4965872;28;20051;-72
2020/12/23 08:34:51;;;;;;;26.60;3.28;;;;;;;;;;4966334;28;20828;-72
2020/12/23 08:37:20;;;;;;;37.80;3.88;;;;;;;;;;4970838;28;20512;-72
2020/12/23 08:39:51;;;;;;;37.13;4.05;;;;;;;;;;4971255;28;20097;-72
2020/12/23 08:42:19;;;;;;;34.63;3.33;;;;;;;;;;4963974;28;20040;-72
2020/12/23 08:44:45;;;;;;;19.02;2.58;;;;;;;;;;4969173;28;20053;-72
2020/12/23 08:47:17;;;;;;;24.00;3.05;;;;;;;;;;4963516;28;20043;-72
2020/12/23 08:49:44;;;;;;;30.58;3.40;;;;;;;;;;4964893;28;20474;-72
2020/12/23 08:52:17;;;;;;;20.77;2.90;;;;;;;;;;4969876;28;20074;-72
2020/12/23 08:54:43;;;;;;;23.45;3.72;;;;;;;;;;4965269;28;20043;-72
2020/12/23 08:57:09;;;;;;;29.83;3.25;;;;;;;;;;4969674;28;20066;-72
2020/12/23 08:59:42;;;;;;;28.75;3.22;;;;;;;;;;4965936;28;20050;-72
2020/12/23 09:02:13;;;;;;;32.42;3.80;;;;;;;;;;4968678;28;20043;-72
2020/12/23 09:04:39;;;;;;;29.45;3.85;;;;;;;;;;4965160;28;20137;-72
2020/12/23 09:07:06;;;;;;;32.80;3.50;;;;;;;;;;4959907;28;20098;-72
2020/12/23 09:09:32;;;;;;;29.42;3.55;;;;;;;;;;4963697;28;20062;-72
2020/12/23 09:11:59;;;;;;;21.17;2.95;;;;;;;;;;4965894;28;20145;-72
2020/12/23 09:14:27;;;;;;;37.92;4.80;;;;;;;;;;4964740;28;20042;-72
2020/12/23 09:16:53;;;;;;;;;;;;;;;;;;4964743;28;20055;-72
2020/12/23 09:19:19;;;;;;;24.25;3.28;;;;;;;;;;4963039;28;20374;-72
2020/12/23 09:21:55;;;;;;;32.65;3.65;;;;;;;;;;4964189;28;20039;-72
2020/12/23 09:24:22;;;;;;;24.83;4.20;;;;;;;;;;4966285;28;20498;-72
2020/12/23 09:26:48;;;;;;;23.03;3.23;;;;;;;;;;4964063;28;20125;-72
2020/12/23 09:29:14;;;;;;;34.95;4.72;;;;;;;;;;4966586;28;20554;-72
2020/12/23 09:31:50;;;;;;;28.10;4.57;;;;;;;;;;4964852;28;21133;-72
2020/12/23 09:34:23;;;;;;;30.77;3.15;;;;;;;;;;4963942;28;20042;-72
2020/12/23 09:36:55;;;;;;;26.45;3.33;;;;;;;;;;4966174;28;20047;-72
2020/12/23 09:39:21;;;;;;;26.70;3.92;;;;;;;;;;4968241;28;20116;-72
2020/12/23 09:42:13;;;;;;;30.38;3.72;;;;;;;;;;4964962;28;20043;-72
2020/12/23 09:44:39;;;;;;;22.08;3.05;;;;;;;;;;4965023;28;20067;-72
2020/12/23 09:47:05;;;;;;;26.20;3.38;;;;;;;;;;4961728;28;20720;-72
2020/12/23 09:49:32;;;;;;;31.20;3.88;;;;;;;;;;4964447;28;20039;-72
2020/12/23 09:51:58;;;;;;;36.42;3.97;;;;;;;;;;4961236;28;20394;-72
2020/12/23 09:54:24;;;;;;;27.95;3.63;;;;;;;;;;4965011;28;20047;-72
2020/12/23 09:56:51;;;;;;;19.30;2.83;;;;;;;;;;4962894;28;20571;-73
2020/12/23 09:59:17;;;;;;;36.47;4.20;;;;;;;;;;4961711;28;20568;-72
2020/12/23 10:01:43;;;;;;;24.75;3.63;;;;;;;;;;4945001;28;20057;-72
2020/12/23 10:04:09;;;;;;;18.15;3.38;;;;;;;;;;4964420;28;20051;-72
2020/12/23 10:06:36;;;;;;;37.15;3.40;;;;;;;;;;4964177;28;20043;-72
2020/12/23 10:09:02;;;;;;;33.83;3.30;;;;;;;;;;4964283;28;20125;-72
2020/12/23 10:11:28;;;;;;;34.42;4.03;;;;;;;;;;4962941;28;20046;-72
2020/12/23 10:13:57;;;;;;;27.98;3.80;;;;;;;;;;4959202;28;20047;-72
2020/12/23 10:16:33;;;;;;;33.63;4.75;;;;;;;;;;4959305;28;20076;-72
2020/12/23 10:18:59;;;;;;;29.02;3.45;;;;;;;;;;4965992;28;20054;-72
2020/12/23 10:21:26;;;;;;;33.40;3.58;;;;;;;;;;4963728;28;20039;-72
2020/12/23 10:23:52;;;;;;;23.70;3.13;;;;;;;;;;4966942;28;20069;-72
2020/12/23 10:26:18;;;;;;;34.30;4.30;;;;;;;;;;4962896;28;20102;-72
2020/12/23 10:28:45;;;;;;;34.95;3.85;;;;;;;;;;4962856;28;20465;-72
2020/12/23 10:31:11;;;;;;;26.38;3.38;;;;;;;;;;4957230;28;20053;-72
2020/12/23 10:33:38;;;;;;;27.85;3.70;;;;;;;;;;4961551;28;20106;-72
2020/12/23 10:36:09;;;;;;;26.07;3.70;;;;;;;;;;4963966;28;20051;-72
2020/12/23 10:38:35;;;;;;;29.88;3.83;;;;;;;;;;4967231;28;20446;-72
2020/12/23 10:41:01;;;;;;;34.00;3.70;;;;;;;;;;4961064;28;20505;-72
2020/12/23 10:43:28;;;;;;;29.15;3.28;;;;;;;;;;4956269;28;20471;-72
2020/12/23 10:45:54;;;;;;;27.67;3.00;;;;;;;;;;4964985;28;20059;-72
2020/12/23 10:48:20;;;;;;;30.35;3.80;;;;;;;;;;4961037;28;20610;-72
2020/12/23 10:50:46;;;;;;;31.98;3.85;;;;;;;;;;4959640;28;20439;-72
2020/12/23 10:53:12;;;;;;;29.55;3.60;;;;;;;;;;4964367;28;20046;-72
2020/12/23 10:55:39;;;;;;;30.90;3.50;;;;;;;;;;4959437;28;20127;-72
2020/12/23 10:58:05;;;;;;;29.85;4.30;;;;;;;;;;4942792;28;20394;-73
2020/12/23 11:00:32;;;;;;;31.52;3.45;;;;;;;;;;4965081;28;20043;-73
2020/12/23 11:02:58;;;;;;;27.67;3.08;;;;;;;;;;4961769;28;20047;-73
2020/12/23 11:05:25;;;;;;;26.63;3.55;;;;;;;;;;4959619;28;20129;-73
2020/12/23 11:07:52;;;;;;;27.02;3.30;;;;;;;;;;4966693;28;20110;-72
2020/12/23 11:10:19;;;;;;;32.60;3.85;;;;;;;;;;4940523;28;20052;-72
2020/12/23 11:12:46;;;;;;;28.92;4.25;;;;;;;;;;4944572;28;20134;-73
2020/12/23 11:15:12;;;;;;;20.40;3.03;;;;;;;;;;4937387;28;20098;-73
2020/12/23 11:17:39;;;;;;;23.38;3.78;;;;;;;;;;4941734;28;20105;-72
2020/12/23 11:20:05;;;;;;;18.50;3.30;;;;;;;;;;4944672;28;20790;-73
2020/12/23 11:22:31;;;;;;;30.35;4.18;;;;;;;;;;4949239;28;20142;-73
2020/12/23 11:25:02;;;;;;;24.48;3.08;;;;;;;;;;4952762;28;20039;-72
2020/12/23 11:27:29;;;;;;;29.55;4.65;;;;;;;;;;4944695;28;20040;-72
2020/12/23 11:29:55;;;;;;;31.40;3.92;;;;;;;;;;4947424;28;20385;-73
2020/12/23 11:32:22;;;;;;;19.55;3.53;;;;;;;;;;4949545;28;20071;-73
2020/12/23 11:34:48;;;;;;;32.55;3.95;;;;;;;;;;4941241;28;20060;-72
2020/12/23 11:37:14;;;;;;;33.05;3.85;;;;;;;;;;4944726;28;20048;-72
2020/12/23 11:39:41;;;;;;;23.75;4.05;;;;;;;;;;4943652;28;20105;-73
2020/12/23 11:42:07;;;;;;;24.00;3.47;;;;;;;;;;4949996;28;20094;-73
2020/12/23 11:44:34;;;;;;;31.42;3.47;;;;;;;;;;4950917;28;20172;-72
2020/12/23 11:47:00;;;;;;;27.42;3.33;;;;;;;;;;4930934;28;20130;-73
2020/12/23 11:49:27;;;;;;;27.67;3.47;;;;;;;;;;4949915;28;20091;-73
2020/12/23 11:51:53;;;;;;;27.38;3.55;;;;;;;;;;4944536;28;20299;-73
2020/12/23 11:54:19;;;;;;;21.42;3.20;;;;;;;;;;4951082;28;20047;-73
2020/12/23 11:56:47;;;;;;;28.02;3.17;;;;;;;;;;4946506;28;20043;-73
2020/12/23 11:59:13;;;;;;;24.60;3.38;;;;;;;;;;4949818;28;20049;-73
2020/12/23 12:01:40;;;;;;;29.08;3.65;;;;;;;;;;4951990;28;20114;-73
2020/12/23 12:04:06;;;;;;;31.42;4.05;;;;;;;;;;4948466;28;20053;-73
2020/12/23 12:06:32;;;;;;;19.83;3.22;;;;;;;;;;4948337;28;20044;-72
2020/12/23 12:08:59;;;;;;;29.27;3.53;;;;;;;;;;4951634;28;20522;-73
2020/12/23 12:11:25;;;;;;;26.25;3.92;;;;;;;;;;4945474;28;20040;-73
2020/12/23 12:13:51;;;;;;;27.52;3.28;;;;;;;;;;4949548;29;20052;-73
2020/12/23 12:16:18;;;;;;;38.22;3.80;;;;;;;;;;4949421;28;20078;-73
2020/12/23 12:18:44;;;;;;;26.33;3.47;;;;;;;;;;4948607;28;20094;-73
2020/12/23 12:21:10;;;;;;;29.23;3.47;;;;;;;;;;4944511;28;20142;-73
2020/12/23 12:23:37;;;;;;;25.65;3.22;;;;;;;;;;4937621;28;20189;-73
2020/12/23 12:26:03;;;;;;;23.00;3.38;;;;;;;;;;4952804;28;20066;-73
2020/12/23 12:28:30;;;;;;;20.95;2.72;;;;;;;;;;4944550;28;20039;-73
2020/12/23 12:30:56;;;;;;;33.72;3.40;;;;;;;;;;4952134;28;20055;-73
2020/12/23 12:33:22;;;;;;;24.52;3.45;;;;;;;;;;4944085;28;20031;-73
2020/12/23 12:35:48;;;;;;;21.42;4.78;;;;;;;;;;4943002;28;20051;-73
2020/12/23 12:38:15;;;;;;;24.85;4.85;;;;;;;;;;4945005;28;20076;-73
2020/12/23 12:40:41;;;;;;;27.35;3.70;;;;;;;;;;4948772;28;20106;-73
2020/12/23 12:43:07;;;;;;;20.65;3.65;;;;;;;;;;4952632;28;20414;-73
2020/12/23 12:45:33;;;;;;;29.90;3.63;;;;;;;;;;4946000;28;20059;-73
2020/12/23 12:47:59;;;;;;;28.02;3.25;;;;;;;;;;4947945;28;20039;-73
2020/12/23 12:50:26;;;;;;;23.00;4.40;;;;;;;;;;4950513;28;20079;-73
2020/12/23 12:52:52;;;;;;;17.42;2.67;;;;;;;;;;4953519;28;20039;-72
2020/12/23 12:55:18;;;;;;;21.20;2.85;;;;;;;;;;4951233;28;20050;-73
2020/12/23 12:57:44;;;;;;;27.77;3.30;;;;;;;;;;4948019;28;20044;-73
2020/12/23 13:00:11;;;;;;;27.92;2.80;;;;;;;;;;4949185;28;20062;-73
2020/12/23 13:02:37;;;;;;;26.43;3.67;;;;;;;;;;4948077;28;20455;-73
2020/12/23 13:05:04;;;;;;;28.83;4.32;;;;;;;;;;4948829;28;20299;-73
2020/12/23 13:07:32;;;;;;;24.35;2.85;;;;;;;;;;4941556;28;20448;-73
2020/12/23 13:09:58;;;;;;;24.30;3.55;;;;;;;;;;4953833;28;20059;-73
2020/12/23 13:12:24;;;;;;;30.73;3.72;;;;;;;;;;4962454;28;20498;-73
2020/12/23 13:14:50;;;;;;;32.08;3.70;;;;;;;;;;4964272;28;20469;-73
2020/12/23 13:17:17;;;;;;;30.23;3.30;;;;;;;;;;4961526;28;20379;-73
2020/12/23 13:19:43;;;;;;;29.08;3.53;;;;;;;;;;4961232;28;20049;-73
2020/12/23 13:22:09;;;;;;;26.08;2.80;;;;;;;;;;4959366;28;20065;-73
2020/12/23 13:24:36;;;;;;;25.33;3.13;;;;;;;;;;4968777;28;20051;-73
2020/12/23 13:27:02;;;;;;;20.52;3.00;;;;;;;;;;4962086;28;20446;-73
2020/12/23 13:29:28;;;;;;;27.60;3.15;;;;;;;;;;4968123;28;20041;-73
2020/12/23 13:31:54;;;;;;;29.67;3.10;;;;;;;;;;4971081;28;20043;-73
2020/12/23 13:34:20;;;;;;;28.20;3.00;;;;;;;;;;4967125;28;20039;-73
2020/12/23 13:36:49;;;;;;;35.15;4.22;;;;;;;;;;4961959;28;20051;-73
2020/12/23 13:39:17;;;;;;;27.27;2.92;;;;;;;;;;4963761;28;20089;-73
2020/12/23 13:41:53;;;;;;;35.47;4.20;;;;;;;;;;4968056;28;20034;-73
2020/12/23 13:44:20;;;;;;;29.60;3.38;;;;;;;;;;4970984;28;20065;-73
2020/12/23 13:46:46;;;;;;;40.95;4.05;;;;;;;;;;4963638;28;20049;-73
2020/12/23 13:49:13;;;;;;;23.08;2.85;;;;;;;;;;4967603;28;20156;-72
2020/12/23 13:51:39;;;;;;;32.00;5.85;;;;;;;;;;4963850;28;20498;-73
2020/12/23 13:54:05;;;;;;;40.22;7.60;;;;;;;;;;4960402;28;20047;-73
2020/12/23 13:56:31;;;;;;;37.90;7.93;;;;;;;;;;4968603;28;20047;-73
2020/12/23 13:58:59;;;;;;;39.90;6.83;;;;;;;;;;4963960;28;20042;-72
2020/12/23 14:01:25;;;;;;;35.05;4.53;;;;;;;;;;4969183;28;20051;-73
2020/12/23 14:03:51;;;;;;;28.83;4.45;;;;;;;;;;4967708;28;20129;-72
2020/12/23 14:06:19;;;;;;;38.95;5.70;;;;;;;;;;4969175;28;20051;-73
2020/12/23 14:08:45;;;;;;;47.10;5.57;;;;;;;;;;4960241;28;20554;-72
2020/12/23 14:11:12;;;;;;;29.50;5.30;;;;;;;;;;4957942;28;20068;-73
2020/12/23 14:13:38;;;;;;;30.52;5.60;;;;;;;;;;4961886;28;20046;-73
2020/12/23 14:16:04;;;;;;;35.90;4.78;;;;;;;;;;4961618;28;20112;-73
2020/12/23 14:18:31;;;;;;;29.85;3.80;;;;;;;;;;4963576;28;20392;-73
2020/12/23 14:20:57;;;;;;;42.05;4.05;;;;;;;;;;4961068;28;20102;-73
2020/12/23 14:23:23;;;;;;;26.63;3.95;;;;;;;;;;4964502;28;20522;-73
2020/12/23 14:25:50;;;;;;;34.53;3.70;;;;;;;;;;4962729;28;20054;-73
2020/12/23 14:28:16;;;;;;;26.65;3.53;;;;;;;;;;4966897;28;20043;-73
2020/12/23 14:30:42;;;;;;;30.50;4.63;;;;;;;;;;4966034;28;20046;-73
2020/12/23 14:33:09;;;;;;;28.88;4.50;;;;;;;;;;4944527;28;20122;-73